sensor_id;sensor_type;location;lat;lon;timestamp;P1;durP1;ratioP1;P2;durP2;ratioP2
58774;SDS011;44545;47.480;19.024;2023-06-22T03:12:44;6.72;;;2.65;;
58774;SDS011;44545;47.480;19.024;2023-06-22T03:15:48;8.77;;;2.70;;
58774;SDS011;44545;47.480;19.024;2023-06-22T03:18:51;8.48;;;2.67;;
58774;SDS011;44545;47.480;19.024;2023-06-22T03:21:53;5.20;;;3.03;;
58774;SDS011;44545;47.480;19.024;2023-06-22T03:24:56;7.62;;;2.72;;
58774;SDS011;44545;47.480;19.024;2023-06-22T03:27:58;5.85;;;2.22;;
58774;SDS011;44545;47.480;19.024;2023-06-22T03:31:02;8.50;;;2.85;;
58774;SDS011;44545;47.480;19.024;2023-06-22T03:34:06;6.28;;;2.67;;
58774;SDS011;44545;47.480;19.024;2023-06-22T03:37:09;11.57;;;2.85;;
58774;SDS011;44545;47.480;19.024;2023-06-22T03:40:11;4.97;;;2.22;;
58774;SDS011;44545;47.480;19.024;2023-06-22T03:43:15;6.87;;;3.03;;
58774;SDS011;44545;47.480;19.024;2023-06-22T03:46:17;7.45;;;2.58;;
58774;SDS011;44545;47.480;19.024;2023-06-22T03:49:20;6.80;;;2.35;;
58774;SDS011;44545;47.480;19.024;2023-06-22T03:52:22;7.60;;;3.20;;
58774;SDS011;44545;47.480;19.024;2023-06-22T03:55:24;9.80;;;3.17;;
58774;SDS011;44545;47.480;19.024;2023-06-22T03:58:27;7.62;;;2.67;;
58774;SDS011;44545;47.480;19.024;2023-06-22T04:01:35;9.63;;;2.80;;
58774;SDS011;44545;47.480;19.024;2023-06-22T04:04:38;5.30;;;3.00;;
58774;SDS011;44545;47.480;19.024;2023-06-22T04:07:41;6.53;;;2.97;;
58774;SDS011;44545;47.480;19.024;2023-06-22T04:10:44;5.87;;;2.92;;
58774;SDS011;44545;47.480;19.024;2023-06-22T04:13:46;6.70;;;2.60;;
58774;SDS011;44545;47.480;19.024;2023-06-22T04:16:51;6.95;;;2.90;;
58774;SDS011;44545;47.480;19.024;2023-06-22T04:19:53;7.32;;;2.72;;
58774;SDS011;44545;47.480;19.024;2023-06-22T04:22:56;7.40;;;2.45;;
58774;SDS011;44545;47.480;19.024;2023-06-22T04:25:58;8.48;;;2.45;;
58774;SDS011;44545;47.480;19.024;2023-06-22T04:29:01;8.27;;;2.50;;
58774;SDS011;44545;47.480;19.024;2023-06-22T04:32:07;6.55;;;2.80;;
58774;SDS011;44545;47.480;19.024;2023-06-22T04:35:10;3.90;;;1.92;;
58774;SDS011;44545;47.480;19.024;2023-06-22T04:38:12;5.62;;;2.50;;
58774;SDS011;44545;47.480;19.024;2023-06-22T04:41:15;9.77;;;2.92;;
58774;SDS011;44545;47.480;19.024;2023-06-22T04:44:27;12.60;;;2.40;;
58774;SDS011;44545;47.480;19.024;2023-06-22T04:47:29;4.90;;;2.45;;
58774;SDS011;44545;47.480;19.024;2023-06-22T04:50:32;10.13;;;3.30;;
58774;SDS011;44545;47.480;19.024;2023-06-22T04:53:34;8.15;;;3.03;;
58774;SDS011;44545;47.480;19.024;2023-06-22T04:56:36;5.70;;;2.40;;
58774;SDS011;44545;47.480;19.024;2023-06-22T04:59:40;5.15;;;2.25;;
58774;SDS011;44545;47.480;19.024;2023-06-22T05:02:44;9.63;;;2.50;;
58774;SDS011;44545;47.480;19.024;2023-06-22T05:05:48;6.87;;;2.58;;
58774;SDS011;44545;47.480;19.024;2023-06-22T05:08:53;8.15;;;3.28;;
58774;SDS011;44545;47.480;19.024;2023-06-22T05:12:00;7.30;;;2.90;;
58774;SDS011;44545;47.480;19.024;2023-06-22T05:15:04;5.90;;;2.90;;
58774;SDS011;44545;47.480;19.024;2023-06-22T05:18:10;5.32;;;2.70;;
58774;SDS011;44545;47.480;19.024;2023-06-22T05:21:14;7.40;;;2.92;;
58774;SDS011;44545;47.480;19.024;2023-06-22T05:24:16;5.65;;;2.75;;
58774;SDS011;44545;47.480;19.024;2023-06-22T05:27:18;10.20;;;3.15;;
58774;SDS011;44545;47.480;19.024;2023-06-22T05:30:21;9.73;;;3.20;;
58774;SDS011;44545;47.480;19.024;2023-06-22T05:33:23;7.35;;;3.65;;
58774;SDS011;44545;47.480;19.024;2023-06-22T05:36:26;9.85;;;3.60;;
58774;SDS011;44545;47.480;19.024;2023-06-22T05:39:28;8.02;;;3.10;;
58774;SDS011;44545;47.480;19.024;2023-06-22T05:42:31;6.47;;;3.35;;
58774;SDS011;44545;47.480;19.024;2023-06-22T05:45:33;4.18;;;2.50;;
58774;SDS011;44545;47.480;19.024;2023-06-22T05:48:35;6.10;;;3.20;;
58774;SDS011;44545;47.480;19.024;2023-06-22T05:51:38;10.50;;;3.37;;
58774;SDS011;44545;47.480;19.024;2023-06-22T05:54:40;7.10;;;3.05;;
58774;SDS011;44545;47.480;19.024;2023-06-22T05:57:43;6.03;;;2.70;;
58774;SDS011;44545;47.480;19.024;2023-06-22T06:00:46;8.18;;;2.70;;
58774;SDS011;44545;47.480;19.024;2023-06-22T06:03:49;8.52;;;2.92;;
58774;SDS011;44545;47.480;19.024;2023-06-22T06:06:52;9.10;;;3.50;;
58774;SDS011;44545;47.480;19.024;2023-06-22T06:09:55;7.68;;;3.20;;
58774;SDS011;44545;47.480;19.024;2023-06-22T06:12:57;4.78;;;2.87;;
58774;SDS011;44545;47.480;19.024;2023-06-22T06:16:00;9.93;;;2.55;;
58774;SDS011;44545;47.480;19.024;2023-06-22T06:19:02;7.90;;;2.70;;
58774;SDS011;44545;47.480;19.024;2023-06-22T06:22:05;5.62;;;2.12;;
58774;SDS011;44545;47.480;19.024;2023-06-22T06:25:07;6.35;;;2.30;;
58774;SDS011;44545;47.480;19.024;2023-06-22T06:28:10;5.50;;;2.30;;
58774;SDS011;44545;47.480;19.024;2023-06-22T06:31:14;8.20;;;2.47;;
58774;SDS011;44545;47.480;19.024;2023-06-22T06:34:20;7.45;;;2.15;;
58774;SDS011;44545;47.480;19.024;2023-06-22T06:37:22;7.90;;;2.20;;
58774;SDS011;44545;47.480;19.024;2023-06-22T06:40:24;4.40;;;2.05;;
58774;SDS011;44545;47.480;19.024;2023-06-22T06:43:27;5.35;;;2.45;;
58774;SDS011;44545;47.480;19.024;2023-06-22T06:46:29;4.70;;;1.90;;
58774;SDS011;44545;47.480;19.024;2023-06-22T06:49:33;6.37;;;1.75;;
58774;SDS011;44545;47.480;19.024;2023-06-22T06:52:36;4.25;;;1.70;;
58774;SDS011;44545;47.480;19.024;2023-06-22T06:55:40;4.37;;;2.00;;
58774;SDS011;44545;47.480;19.024;2023-06-22T06:58:42;10.23;;;2.03;;
58774;SDS011;44545;47.480;19.024;2023-06-22T07:01:46;5.80;;;2.00;;
58774;SDS011;44545;47.480;19.024;2023-06-22T07:04:50;6.72;;;2.35;;
58774;SDS011;44545;47.480;19.024;2023-06-22T07:07:53;6.70;;;2.05;;
58774;SDS011;44545;47.480;19.024;2023-06-22T07:10:55;7.87;;;2.03;;
58774;SDS011;44545;47.480;19.024;2023-06-22T07:13:58;4.25;;;2.05;;
58774;SDS011;44545;47.480;19.024;2023-06-22T07:17:00;7.18;;;2.20;;
58774;SDS011;44545;47.480;19.024;2023-06-22T07:20:03;5.05;;;2.58;;
58774;SDS011;44545;47.480;19.024;2023-06-22T07:23:15;9.68;;;2.67;;
58774;SDS011;44545;47.480;19.024;2023-06-22T07:26:22;7.18;;;2.50;;
58774;SDS011;44545;47.480;19.024;2023-06-22T07:29:31;9.38;;;2.15;;
58774;SDS011;44545;47.480;19.024;2023-06-22T07:32:34;5.60;;;2.33;;
58774;SDS011;44545;47.480;19.024;2023-06-22T07:35:36;7.62;;;2.20;;
58774;SDS011;44545;47.480;19.024;2023-06-22T07:38:39;5.28;;;2.00;;
58774;SDS011;44545;47.480;19.024;2023-06-22T07:41:41;8.55;;;2.53;;
58774;SDS011;44545;47.480;19.024;2023-06-22T07:44:43;5.45;;;2.08;;
58774;SDS011;44545;47.480;19.024;2023-06-22T07:47:46;7.80;;;1.95;;
58774;SDS011;44545;47.480;19.024;2023-06-22T07:50:48;4.75;;;2.42;;
58774;SDS011;44545;47.480;19.024;2023-06-22T07:53:51;3.58;;;2.03;;
58774;SDS011;44545;47.480;19.024;2023-06-22T07:56:55;7.13;;;2.10;;
58774;SDS011;44545;47.480;19.024;2023-06-22T07:59:58;3.97;;;2.22;;
58774;SDS011;44545;47.480;19.024;2023-06-22T08:03:01;6.03;;;2.10;;
58774;SDS011;44545;47.480;19.024;2023-06-22T08:06:06;7.93;;;2.30;;
58774;SDS011;44545;47.480;19.024;2023-06-22T08:09:11;5.65;;;2.03;;
58774;SDS011;44545;47.480;19.024;2023-06-22T08:12:13;7.80;;;2.47;;
58774;SDS011;44545;47.480;19.024;2023-06-22T08:15:16;4.68;;;2.37;;
58774;SDS011;44545;47.480;19.024;2023-06-22T08:18:19;6.28;;;3.03;;
58774;SDS011;44545;47.480;19.024;2023-06-22T08:21:21;9.52;;;2.75;;
58774;SDS011;44545;47.480;19.024;2023-06-22T08:24:24;7.22;;;2.95;;
58774;SDS011;44545;47.480;19.024;2023-06-22T08:27:26;8.35;;;3.00;;
58774;SDS011;44545;47.480;19.024;2023-06-22T08:30:30;5.37;;;3.78;;
58774;SDS011;44545;47.480;19.024;2023-06-22T08:33:32;5.70;;;3.53;;
58774;SDS011;44545;47.480;19.024;2023-06-22T08:36:35;5.28;;;3.80;;
58774;SDS011;44545;47.480;19.024;2023-06-22T08:39:44;11.15;;;4.30;;
58774;SDS011;44545;47.480;19.024;2023-06-22T08:42:47;7.80;;;4.53;;
58774;SDS011;44545;47.480;19.024;2023-06-22T08:45:50;5.72;;;3.87;;
58774;SDS011;44545;47.480;19.024;2023-06-22T08:48:53;8.65;;;4.25;;
58774;SDS011;44545;47.480;19.024;2023-06-22T08:51:55;7.18;;;4.47;;
58774;SDS011;44545;47.480;19.024;2023-06-22T08:54:59;6.80;;;3.90;;
58774;SDS011;44545;47.480;19.024;2023-06-22T08:58:01;10.45;;;4.28;;
58774;SDS011;44545;47.480;19.024;2023-06-22T09:01:04;5.93;;;3.83;;
58774;SDS011;44545;47.480;19.024;2023-06-22T09:04:06;5.47;;;3.60;;
58774;SDS011;44545;47.480;19.024;2023-06-22T09:07:11;6.93;;;4.40;;
58774;SDS011;44545;47.480;19.024;2023-06-22T09:10:14;6.05;;;4.03;;
58774;SDS011;44545;47.480;19.024;2023-06-22T09:13:16;6.50;;;3.87;;
58774;SDS011;44545;47.480;19.024;2023-06-22T09:16:19;9.38;;;4.57;;
58774;SDS011;44545;47.480;19.024;2023-06-22T09:19:21;7.37;;;3.80;;
58774;SDS011;44545;47.480;19.024;2023-06-22T09:22:24;10.73;;;4.60;;
58774;SDS011;44545;47.480;19.024;2023-06-22T09:25:31;6.37;;;4.32;;
58774;SDS011;44545;47.480;19.024;2023-06-22T09:28:33;6.32;;;3.67;;
58774;SDS011;44545;47.480;19.024;2023-06-22T09:31:36;7.50;;;3.90;;
58774;SDS011;44545;47.480;19.024;2023-06-22T09:34:38;5.93;;;3.60;;
58774;SDS011;44545;47.480;19.024;2023-06-22T09:37:41;6.78;;;3.97;;
58774;SDS011;44545;47.480;19.024;2023-06-22T09:40:43;5.32;;;3.50;;
58774;SDS011;44545;47.480;19.024;2023-06-22T09:43:46;4.80;;;3.65;;
58774;SDS011;44545;47.480;19.024;2023-06-22T09:46:49;4.85;;;3.80;;
58774;SDS011;44545;47.480;19.024;2023-06-22T09:49:51;8.65;;;4.28;;
58774;SDS011;44545;47.480;19.024;2023-06-22T09:52:54;8.50;;;4.35;;
58774;SDS011;44545;47.480;19.024;2023-06-22T09:55:57;9.00;;;4.00;;
58774;SDS011;44545;47.480;19.024;2023-06-22T09:58:59;8.15;;;4.20;;
58774;SDS011;44545;47.480;19.024;2023-06-22T10:02:19;9.68;;;4.47;;
58774;SDS011;44545;47.480;19.024;2023-06-22T10:05:22;7.68;;;4.30;;
58774;SDS011;44545;47.480;19.024;2023-06-22T10:08:24;9.00;;;5.25;;
58774;SDS011;44545;47.480;19.024;2023-06-22T10:11:27;7.40;;;4.60;;
58774;SDS011;44545;47.480;19.024;2023-06-22T10:14:32;8.32;;;4.30;;
58774;SDS011;44545;47.480;19.024;2023-06-22T10:17:34;7.65;;;4.32;;
58774;SDS011;44545;47.480;19.024;2023-06-22T10:20:37;6.90;;;4.90;;
58774;SDS011;44545;47.480;19.024;2023-06-22T10:23:39;5.82;;;3.97;;
58774;SDS011;44545;47.480;19.024;2023-06-22T10:26:42;11.10;;;4.80;;
58774;SDS011;44545;47.480;19.024;2023-06-22T10:29:44;8.25;;;4.35;;
58774;SDS011;44545;47.480;19.024;2023-06-22T10:32:47;7.07;;;4.62;;
58774;SDS011;44545;47.480;19.024;2023-06-22T10:35:49;5.32;;;4.12;;
58774;SDS011;44545;47.480;19.024;2023-06-22T10:38:51;7.12;;;4.35;;
58774;SDS011;44545;47.480;19.024;2023-06-22T10:41:55;6.35;;;4.00;;
58774;SDS011;44545;47.480;19.024;2023-06-22T10:44:58;9.95;;;4.50;;
58774;SDS011;44545;47.480;19.024;2023-06-22T10:48:00;12.43;;;4.72;;
58774;SDS011;44545;47.480;19.024;2023-06-22T10:51:02;11.98;;;4.65;;
58774;SDS011;44545;47.480;19.024;2023-06-22T10:54:05;5.97;;;3.95;;
58774;SDS011;44545;47.480;19.024;2023-06-22T10:57:07;13.00;;;4.68;;
58774;SDS011;44545;47.480;19.024;2023-06-22T11:00:10;7.47;;;4.10;;
58774;SDS011;44545;47.480;19.024;2023-06-22T11:03:13;5.80;;;3.83;;
58774;SDS011;44545;47.480;19.024;2023-06-22T11:06:17;4.72;;;3.80;;
58774;SDS011;44545;47.480;19.024;2023-06-22T11:09:19;8.18;;;4.40;;
58774;SDS011;44545;47.480;19.024;2023-06-22T11:12:30;9.70;;;4.15;;
58774;SDS011;44545;47.480;19.024;2023-06-22T11:15:33;9.90;;;4.85;;
58774;SDS011;44545;47.480;19.024;2023-06-22T11:18:36;11.32;;;4.90;;
58774;SDS011;44545;47.480;19.024;2023-06-22T11:21:38;9.20;;;5.18;;
58774;SDS011;44545;47.480;19.024;2023-06-22T11:24:41;9.13;;;4.85;;
58774;SDS011;44545;47.480;19.024;2023-06-22T11:27:44;9.70;;;4.97;;
58774;SDS011;44545;47.480;19.024;2023-06-22T11:30:47;7.95;;;4.70;;
58774;SDS011;44545;47.480;19.024;2023-06-22T11:33:49;8.15;;;4.72;;
58774;SDS011;44545;47.480;19.024;2023-06-22T11:36:52;11.57;;;4.97;;
58774;SDS011;44545;47.480;19.024;2023-06-22T11:39:54;8.15;;;4.95;;
58774;SDS011;44545;47.480;19.024;2023-06-22T11:43:08;8.27;;;5.65;;
58774;SDS011;44545;47.480;19.024;2023-06-22T11:46:10;8.68;;;5.25;;
58774;SDS011;44545;47.480;19.024;2023-06-22T11:49:13;8.20;;;4.93;;
58774;SDS011;44545;47.480;19.024;2023-06-22T11:52:15;5.72;;;4.12;;
58774;SDS011;44545;47.480;19.024;2023-06-22T11:55:20;13.82;;;4.32;;
58774;SDS011;44545;47.480;19.024;2023-06-22T11:58:22;10.93;;;4.75;;
58774;SDS011;44545;47.480;19.024;2023-06-22T12:01:25;11.82;;;5.12;;
58774;SDS011;44545;47.480;19.024;2023-06-22T12:04:27;8.55;;;5.05;;
58774;SDS011;44545;47.480;19.024;2023-06-22T12:07:30;7.35;;;4.53;;
58774;SDS011;44545;47.480;19.024;2023-06-22T12:10:32;7.82;;;5.32;;
58774;SDS011;44545;47.480;19.024;2023-06-22T12:13:34;8.73;;;4.87;;
58774;SDS011;44545;47.480;19.024;2023-06-22T12:16:37;8.57;;;4.78;;
58774;SDS011;44545;47.480;19.024;2023-06-22T12:19:40;7.45;;;4.43;;
58774;SDS011;44545;47.480;19.024;2023-06-22T12:22:43;8.57;;;4.60;;
58774;SDS011;44545;47.480;19.024;2023-06-22T12:25:45;9.13;;;4.03;;
58774;SDS011;44545;47.480;19.024;2023-06-22T12:28:48;8.63;;;4.82;;
58774;SDS011;44545;47.480;19.024;2023-06-22T12:31:50;8.73;;;4.62;;
58774;SDS011;44545;47.480;19.024;2023-06-22T12:34:53;8.38;;;4.60;;
58774;SDS011;44545;47.480;19.024;2023-06-22T12:37:55;8.77;;;4.80;;
58774;SDS011;44545;47.480;19.024;2023-06-22T12:40:57;11.93;;;4.72;;
58774;SDS011;44545;47.480;19.024;2023-06-22T12:44:00;8.73;;;4.72;;
58774;SDS011;44545;47.480;19.024;2023-06-22T12:47:04;7.53;;;4.10;;
58774;SDS011;44545;47.480;19.024;2023-06-22T12:50:07;9.98;;;5.00;;
58774;SDS011;44545;47.480;19.024;2023-06-22T12:53:09;9.15;;;4.35;;
58774;SDS011;44545;47.480;19.024;2023-06-22T12:56:12;7.65;;;4.75;;
58774;SDS011;44545;47.480;19.024;2023-06-22T12:59:14;6.87;;;4.15;;
58774;SDS011;44545;47.480;19.024;2023-06-22T13:02:16;11.23;;;4.80;;
58774;SDS011;44545;47.480;19.024;2023-06-22T13:05:19;8.88;;;3.85;;
58774;SDS011;44545;47.480;19.024;2023-06-22T13:08:21;11.55;;;4.93;;
58774;SDS011;44545;47.480;19.024;2023-06-22T13:11:37;10.32;;;4.10;;
58774;SDS011;44545;47.480;19.024;2023-06-22T13:14:39;7.60;;;4.53;;
58774;SDS011;44545;47.480;19.024;2023-06-22T13:17:41;8.50;;;4.70;;
58774;SDS011;44545;47.480;19.024;2023-06-22T13:20:44;9.23;;;4.70;;
58774;SDS011;44545;47.480;19.024;2023-06-22T13:23:47;9.65;;;5.03;;
58774;SDS011;44545;47.480;19.024;2023-06-22T13:26:49;7.97;;;4.05;;
58774;SDS011;44545;47.480;19.024;2023-06-22T13:29:52;7.03;;;4.40;;
58774;SDS011;44545;47.480;19.024;2023-06-22T13:32:55;11.98;;;4.62;;
58774;SDS011;44545;47.480;19.024;2023-06-22T13:35:57;11.30;;;4.68;;
58774;SDS011;44545;47.480;19.024;2023-06-22T13:39:00;11.93;;;4.87;;
58774;SDS011;44545;47.480;19.024;2023-06-22T13:42:02;10.60;;;4.62;;
58774;SDS011;44545;47.480;19.024;2023-06-22T13:45:05;7.00;;;4.87;;
58774;SDS011;44545;47.480;19.024;2023-06-22T13:48:08;11.00;;;4.87;;
58774;SDS011;44545;47.480;19.024;2023-06-22T13:51:11;11.40;;;4.97;;
58774;SDS011;44545;47.480;19.024;2023-06-22T13:54:13;6.80;;;4.37;;
58774;SDS011;44545;47.480;19.024;2023-06-22T13:57:31;13.05;;;5.57;;
58774;SDS011;44545;47.480;19.024;2023-06-22T14:00:33;8.85;;;4.60;;
58774;SDS011;44545;47.480;19.024;2023-06-22T14:03:36;6.25;;;4.12;;
58774;SDS011;44545;47.480;19.024;2023-06-22T14:06:38;9.40;;;4.68;;
58774;SDS011;44545;47.480;19.024;2023-06-22T14:09:40;7.43;;;4.60;;
58774;SDS011;44545;47.480;19.024;2023-06-22T14:12:42;11.30;;;4.78;;
58774;SDS011;44545;47.480;19.024;2023-06-22T14:15:45;8.35;;;4.70;;
58774;SDS011;44545;47.480;19.024;2023-06-22T14:18:50;7.30;;;4.40;;
58774;SDS011;44545;47.480;19.024;2023-06-22T14:21:52;7.90;;;4.65;;
58774;SDS011;44545;47.480;19.024;2023-06-22T14:24:54;8.07;;;5.00;;
58774;SDS011;44545;47.480;19.024;2023-06-22T14:31:01;10.50;;;4.93;;
58774;SDS011;44545;47.480;19.024;2023-06-22T14:34:04;7.72;;;4.40;;
58774;SDS011;44545;47.480;19.024;2023-06-22T14:37:07;9.50;;;4.97;;
58774;SDS011;44545;47.480;19.024;2023-06-22T14:40:12;11.67;;;5.10;;
58774;SDS011;44545;47.480;19.024;2023-06-22T14:43:14;7.57;;;4.85;;
58774;SDS011;44545;47.480;19.024;2023-06-22T14:46:17;8.32;;;5.03;;
58774;SDS011;44545;47.480;19.024;2023-06-22T14:49:21;11.17;;;5.03;;
58774;SDS011;44545;47.480;19.024;2023-06-22T14:52:24;8.05;;;4.37;;
58774;SDS011;44545;47.480;19.024;2023-06-22T14:55:26;15.73;;;5.20;;
58774;SDS011;44545;47.480;19.024;2023-06-22T14:58:31;11.43;;;4.97;;
58774;SDS011;44545;47.480;19.024;2023-06-22T15:01:37;8.52;;;4.93;;
58774;SDS011;44545;47.480;19.024;2023-06-22T15:04:42;8.80;;;4.50;;
